sensor_id;sensor_type;location;lat;lon;timestamp;pressure;altitude;pressure_sealevel;temperature;humidity
48810;BME280;40070;47.322;18.784;2023-08-06T00:01:58;989.37;;;21.72;81.75
48810;BME280;40070;47.322;18.784;2023-08-06T00:03:59;989.31;;;21.81;80.90
48810;BME280;40070;47.322;18.784;2023-08-06T00:06:00;989.25;;;21.57;81.80
48810;BME280;40070;47.322;18.784;2023-08-06T00:08:01;989.12;;;21.51;82.49
48810;BME280;40070;47.322;18.784;2023-08-06T00:10:02;989.05;;;21.38;83.14
48810;BME280;40070;47.322;18.784;2023-08-06T00:12:04;989.06;;;21.33;84.10
48810;BME280;40070;47.322;18.784;2023-08-06T00:14:05;989.17;;;21.62;82.32
48810;BME280;40070;47.322;18.784;2023-08-06T00:16:09;989.26;;;21.73;81.83
48810;BME280;40070;47.322;18.784;2023-08-06T00:18:10;989.37;;;21.58;81.93
48810;BME280;40070;47.322;18.784;2023-08-06T00:20:11;989.43;;;21.59;82.34
48810;BME280;40070;47.322;18.784;2023-08-06T00:22:12;989.48;;;21.38;82.59
48810;BME280;40070;47.322;18.784;2023-08-06T00:24:13;989.55;;;21.38;82.91
48810;BME280;40070;47.322;18.784;2023-08-06T00:26:14;989.57;;;21.49;82.12
48810;BME280;40070;47.322;18.784;2023-08-06T00:28:15;989.55;;;21.56;81.84
48810;BME280;40070;47.322;18.784;2023-08-06T00:30:16;989.55;;;21.62;81.99
48810;BME280;40070;47.322;18.784;2023-08-06T00:32:17;989.49;;;21.62;81.59
48810;BME280;40070;47.322;18.784;2023-08-06T00:34:18;989.43;;;21.68;81.12
48810;BME280;40070;47.322;18.784;2023-08-06T00:36:19;989.43;;;21.61;81.41
48810;BME280;40070;47.322;18.784;2023-08-06T00:38:20;989.33;;;21.72;81.00
48810;BME280;40070;47.322;18.784;2023-08-06T00:40:21;989.32;;;21.47;81.77
48810;BME280;40070;47.322;18.784;2023-08-06T00:42:22;989.31;;;21.53;82.43
48810;BME280;40070;47.322;18.784;2023-08-06T00:44:24;989.23;;;21.46;83.26
48810;BME280;40070;47.322;18.784;2023-08-06T00:46:25;989.19;;;21.46;82.82
48810;BME280;40070;47.322;18.784;2023-08-06T00:48:25;989.18;;;21.54;82.65
48810;BME280;40070;47.322;18.784;2023-08-06T00:50:27;989.18;;;21.60;81.35
48810;BME280;40070;47.322;18.784;2023-08-06T00:52:28;989.12;;;21.74;80.84
48810;BME280;40070;47.322;18.784;2023-08-06T00:54:29;989.07;;;21.75;80.73
48810;BME280;40070;47.322;18.784;2023-08-06T00:56:30;989.08;;;21.83;80.15
48810;BME280;40070;47.322;18.784;2023-08-06T00:58:31;989.04;;;21.80;80.48
48810;BME280;40070;47.322;18.784;2023-08-06T01:00:32;988.98;;;21.65;81.14
48810;BME280;40070;47.322;18.784;2023-08-06T01:02:33;988.95;;;21.57;81.72
48810;BME280;40070;47.322;18.784;2023-08-06T01:04:34;988.96;;;21.55;81.94
48810;BME280;40070;47.322;18.784;2023-08-06T01:06:38;988.96;;;21.60;81.42
48810;BME280;40070;47.322;18.784;2023-08-06T01:08:54;988.92;;;21.52;81.95
48810;BME280;40070;47.322;18.784;2023-08-06T01:13:24;988.81;;;21.52;82.24
48810;BME280;40070;47.322;18.784;2023-08-06T01:16:00;988.78;;;21.51;82.33
48810;BME280;40070;47.322;18.784;2023-08-06T01:17:46;988.76;;;21.59;81.85
48810;BME280;40070;47.322;18.784;2023-08-06T01:19:48;988.76;;;21.33;82.67
48810;BME280;40070;47.322;18.784;2023-08-06T01:21:49;988.76;;;21.31;83.63
48810;BME280;40070;47.322;18.784;2023-08-06T01:23:50;988.75;;;21.49;82.76
48810;BME280;40070;47.322;18.784;2023-08-06T01:28:26;988.80;;;21.59;82.35
48810;BME280;40070;47.322;18.784;2023-08-06T01:30:31;988.75;;;21.40;83.25
48810;BME280;40070;47.322;18.784;2023-08-06T01:32:34;988.75;;;21.00;85.11
48810;BME280;40070;47.322;18.784;2023-08-06T01:34:35;988.78;;;20.98;84.71
48810;BME280;40070;47.322;18.784;2023-08-06T01:36:39;988.78;;;21.03;84.86
48810;BME280;40070;47.322;18.784;2023-08-06T01:38:41;988.72;;;21.06;84.52
48810;BME280;40070;47.322;18.784;2023-08-06T01:40:42;988.71;;;21.00;84.48
48810;BME280;40070;47.322;18.784;2023-08-06T01:42:43;988.68;;;21.18;83.49
48810;BME280;40070;47.322;18.784;2023-08-06T01:44:43;988.56;;;21.07;84.08
48810;BME280;40070;47.322;18.784;2023-08-06T01:46:45;988.48;;;21.29;83.14
48810;BME280;40070;47.322;18.784;2023-08-06T01:48:45;988.46;;;21.31;82.80
48810;BME280;40070;47.322;18.784;2023-08-06T01:50:46;988.53;;;21.37;82.67
48810;BME280;40070;47.322;18.784;2023-08-06T01:52:47;988.52;;;21.28;83.58
48810;BME280;40070;47.322;18.784;2023-08-06T01:54:48;988.53;;;21.36;82.85
48810;BME280;40070;47.322;18.784;2023-08-06T01:56:49;988.44;;;21.46;81.86
48810;BME280;40070;47.322;18.784;2023-08-06T01:58:50;988.43;;;21.37;82.15
48810;BME280;40070;47.322;18.784;2023-08-06T02:00:51;988.39;;;21.10;82.66
48810;BME280;40070;47.322;18.784;2023-08-06T02:02:52;988.26;;;20.90;83.29
48810;BME280;40070;47.322;18.784;2023-08-06T02:04:53;988.24;;;20.94;83.24
48810;BME280;40070;47.322;18.784;2023-08-06T02:06:54;988.19;;;20.75;83.80
48810;BME280;40070;47.322;18.784;2023-08-06T02:08:55;988.19;;;20.81;83.81
48810;BME280;40070;47.322;18.784;2023-08-06T02:10:56;988.17;;;20.89;83.12
48810;BME280;40070;47.322;18.784;2023-08-06T02:12:57;988.15;;;20.93;83.10
48810;BME280;40070;47.322;18.784;2023-08-06T02:14:58;988.11;;;21.10;81.91
48810;BME280;40070;47.322;18.784;2023-08-06T02:16:59;988.13;;;21.13;81.83
48810;BME280;40070;47.322;18.784;2023-08-06T02:19:00;988.08;;;21.14;81.82
48810;BME280;40070;47.322;18.784;2023-08-06T02:21:01;988.08;;;21.10;81.98
48810;BME280;40070;47.322;18.784;2023-08-06T02:23:02;988.03;;;20.97;82.55
48810;BME280;40070;47.322;18.784;2023-08-06T02:25:03;987.95;;;21.08;81.79
48810;BME280;40070;47.322;18.784;2023-08-06T02:27:04;987.92;;;21.12;81.27
48810;BME280;40070;47.322;18.784;2023-08-06T02:29:05;987.83;;;20.79;82.26
48810;BME280;40070;47.322;18.784;2023-08-06T02:31:06;987.85;;;20.95;81.82
48810;BME280;40070;47.322;18.784;2023-08-06T02:33:07;987.86;;;21.00;81.37
48810;BME280;40070;47.322;18.784;2023-08-06T02:35:08;987.82;;;21.00;81.01
48810;BME280;40070;47.322;18.784;2023-08-06T02:37:09;987.78;;;20.90;81.40
48810;BME280;40070;47.322;18.784;2023-08-06T02:39:10;987.78;;;20.69;83.16
48810;BME280;40070;47.322;18.784;2023-08-06T02:41:11;987.78;;;20.81;82.52
48810;BME280;40070;47.322;18.784;2023-08-06T02:43:12;987.83;;;21.01;81.21
48810;BME280;40070;47.322;18.784;2023-08-06T02:45:13;987.84;;;20.84;82.72
48810;BME280;40070;47.322;18.784;2023-08-06T02:47:14;987.81;;;20.63;83.43
48810;BME280;40070;47.322;18.784;2023-08-06T02:49:15;987.85;;;20.96;82.58
48810;BME280;40070;47.322;18.784;2023-08-06T02:51:16;987.88;;;21.12;81.02
48810;BME280;40070;47.322;18.784;2023-08-06T02:53:17;987.86;;;21.03;80.74
48810;BME280;40070;47.322;18.784;2023-08-06T02:55:18;987.91;;;21.15;80.71
48810;BME280;40070;47.322;18.784;2023-08-06T02:57:19;987.92;;;21.18;80.45
48810;BME280;40070;47.322;18.784;2023-08-06T02:59:20;987.95;;;21.12;80.77
48810;BME280;40070;47.322;18.784;2023-08-06T03:01:21;987.97;;;21.22;80.18
48810;BME280;40070;47.322;18.784;2023-08-06T03:03:22;987.99;;;21.22;80.30
48810;BME280;40070;47.322;18.784;2023-08-06T03:05:23;988.02;;;21.13;80.23
48810;BME280;40070;47.322;18.784;2023-08-06T03:07:24;988.05;;;21.07;80.86
48810;BME280;40070;47.322;18.784;2023-08-06T03:09:25;988.05;;;21.19;80.34
48810;BME280;40070;47.322;18.784;2023-08-06T03:11:26;988.06;;;21.14;79.85
48810;BME280;40070;47.322;18.784;2023-08-06T03:13:27;988.00;;;20.81;81.16
48810;BME280;40070;47.322;18.784;2023-08-06T03:15:28;988.00;;;20.70;81.57
48810;BME280;40070;47.322;18.784;2023-08-06T03:17:29;987.98;;;20.67;81.82
48810;BME280;40070;47.322;18.784;2023-08-06T03:19:30;987.90;;;20.44;83.31
48810;BME280;40070;47.322;18.784;2023-08-06T03:21:31;987.87;;;20.57;83.00
48810;BME280;40070;47.322;18.784;2023-08-06T03:23:32;987.88;;;20.52;81.97
48810;BME280;40070;47.322;18.784;2023-08-06T03:25:35;987.92;;;20.45;82.33
48810;BME280;40070;47.322;18.784;2023-08-06T03:27:36;987.91;;;20.50;82.77
48810;BME280;40070;47.322;18.784;2023-08-06T03:29:37;987.87;;;20.59;81.72
48810;BME280;40070;47.322;18.784;2023-08-06T03:31:38;987.85;;;20.49;82.42
48810;BME280;40070;47.322;18.784;2023-08-06T03:33:39;987.88;;;20.30;82.72
48810;BME280;40070;47.322;18.784;2023-08-06T03:35:40;987.86;;;20.32;82.72
48810;BME280;40070;47.322;18.784;2023-08-06T03:37:41;987.87;;;20.37;82.85
48810;BME280;40070;47.322;18.784;2023-08-06T03:39:42;987.92;;;20.52;81.62
48810;BME280;40070;47.322;18.784;2023-08-06T03:41:43;987.93;;;20.56;80.93
48810;BME280;40070;47.322;18.784;2023-08-06T03:43:44;987.96;;;20.59;81.08
48810;BME280;40070;47.322;18.784;2023-08-06T03:45:45;987.96;;;20.57;80.71
48810;BME280;40070;47.322;18.784;2023-08-06T03:47:46;987.88;;;20.59;80.59
48810;BME280;40070;47.322;18.784;2023-08-06T03:49:47;987.84;;;20.52;80.55
48810;BME280;40070;47.322;18.784;2023-08-06T03:51:48;987.86;;;20.47;81.07
48810;BME280;40070;47.322;18.784;2023-08-06T03:53:49;987.86;;;20.36;82.30
48810;BME280;40070;47.322;18.784;2023-08-06T03:55:50;987.80;;;20.43;81.65
48810;BME280;40070;47.322;18.784;2023-08-06T03:57:51;987.75;;;20.25;82.04
48810;BME280;40070;47.322;18.784;2023-08-06T03:59:52;987.75;;;20.44;81.66
48810;BME280;40070;47.322;18.784;2023-08-06T04:01:53;987.77;;;20.49;81.17
48810;BME280;40070;47.322;18.784;2023-08-06T04:03:54;987.80;;;20.49;80.79
48810;BME280;40070;47.322;18.784;2023-08-06T04:05:55;987.80;;;20.34;81.68
48810;BME280;40070;47.322;18.784;2023-08-06T04:07:56;987.78;;;20.50;81.03
48810;BME280;40070;47.322;18.784;2023-08-06T04:10:00;987.74;;;20.49;80.94
48810;BME280;40070;47.322;18.784;2023-08-06T04:12:01;987.69;;;20.44;80.77
48810;BME280;40070;47.322;18.784;2023-08-06T04:14:02;987.72;;;20.22;81.79
48810;BME280;40070;47.322;18.784;2023-08-06T04:16:03;987.67;;;20.27;81.97
48810;BME280;40070;47.322;18.784;2023-08-06T04:18:04;987.69;;;19.98;82.48
48810;BME280;40070;47.322;18.784;2023-08-06T04:20:06;987.68;;;20.19;82.59
48810;BME280;40070;47.322;18.784;2023-08-06T04:22:07;987.72;;;19.99;82.73
48810;BME280;40070;47.322;18.784;2023-08-06T04:24:08;987.75;;;19.91;83.09
48810;BME280;40070;47.322;18.784;2023-08-06T04:26:09;987.70;;;20.15;82.13
48810;BME280;40070;47.322;18.784;2023-08-06T04:28:10;987.70;;;20.12;82.99
48810;BME280;40070;47.322;18.784;2023-08-06T04:30:11;987.73;;;20.06;81.99
48810;BME280;40070;47.322;18.784;2023-08-06T04:32:12;987.69;;;19.90;82.13
48810;BME280;40070;47.322;18.784;2023-08-06T04:34:13;987.67;;;19.90;81.65
48810;BME280;40070;47.322;18.784;2023-08-06T04:36:14;987.67;;;19.86;81.46
48810;BME280;40070;47.322;18.784;2023-08-06T04:38:15;987.61;;;19.82;81.90
48810;BME280;40070;47.322;18.784;2023-08-06T04:40:16;987.65;;;19.77;82.85
48810;BME280;40070;47.322;18.784;2023-08-06T04:42:17;987.59;;;19.90;81.38
48810;BME280;40070;47.322;18.784;2023-08-06T04:44:18;987.61;;;19.67;82.00
48810;BME280;40070;47.322;18.784;2023-08-06T04:46:19;987.57;;;19.59;81.75
48810;BME280;40070;47.322;18.784;2023-08-06T04:48:20;987.54;;;19.87;80.63
48810;BME280;40070;47.322;18.784;2023-08-06T04:50:21;987.55;;;19.72;80.93
48810;BME280;40070;47.322;18.784;2023-08-06T04:52:22;987.51;;;19.94;80.26
48810;BME280;40070;47.322;18.784;2023-08-06T04:54:23;987.55;;;19.78;80.95
48810;BME280;40070;47.322;18.784;2023-08-06T04:56:24;987.60;;;19.69;81.21
48810;BME280;40070;47.322;18.784;2023-08-06T04:58:25;987.62;;;19.89;80.18
48810;BME280;40070;47.322;18.784;2023-08-06T05:00:26;987.64;;;19.87;79.99
48810;BME280;40070;47.322;18.784;2023-08-06T05:02:27;987.68;;;20.00;80.12
48810;BME280;40070;47.322;18.784;2023-08-06T05:04:28;987.59;;;20.06;80.64
48810;BME280;40070;47.322;18.784;2023-08-06T05:06:29;987.55;;;20.25;79.34
48810;BME280;40070;47.322;18.784;2023-08-06T05:08:30;987.51;;;20.25;78.64
48810;BME280;40070;47.322;18.784;2023-08-06T05:10:31;987.53;;;20.26;78.88
48810;BME280;40070;47.322;18.784;2023-08-06T05:12:32;987.55;;;20.11;79.08
48810;BME280;40070;47.322;18.784;2023-08-06T05:14:33;987.52;;;20.18;78.66
48810;BME280;40070;47.322;18.784;2023-08-06T05:16:34;987.54;;;20.24;78.69
48810;BME280;40070;47.322;18.784;2023-08-06T05:18:35;987.53;;;20.19;78.61
48810;BME280;40070;47.322;18.784;2023-08-06T05:20:36;987.57;;;20.18;78.35
48810;BME280;40070;47.322;18.784;2023-08-06T05:22:37;987.58;;;20.08;78.44
48810;BME280;40070;47.322;18.784;2023-08-06T05:24:38;987.59;;;19.96;78.81
48810;BME280;40070;47.322;18.784;2023-08-06T05:26:39;987.54;;;19.88;78.93
48810;BME280;40070;47.322;18.784;2023-08-06T05:28:40;987.54;;;19.58;80.46
48810;BME280;40070;47.322;18.784;2023-08-06T05:30:41;987.51;;;19.19;80.63
48810;BME280;40070;47.322;18.784;2023-08-06T05:32:42;987.38;;;19.25;80.30
48810;BME280;40070;47.322;18.784;2023-08-06T05:34:43;987.42;;;19.14;79.91
48810;BME280;40070;47.322;18.784;2023-08-06T05:36:44;987.40;;;19.01;80.77
48810;BME280;40070;47.322;18.784;2023-08-06T05:38:45;987.36;;;19.06;80.58
48810;BME280;40070;47.322;18.784;2023-08-06T05:40:46;987.40;;;19.17;80.91
48810;BME280;40070;47.322;18.784;2023-08-06T05:42:47;987.37;;;19.32;80.73
48810;BME280;40070;47.322;18.784;2023-08-06T05:44:48;987.33;;;18.77;81.36
48810;BME280;40070;47.322;18.784;2023-08-06T05:46:49;987.26;;;19.01;81.64
48810;BME280;40070;47.322;18.784;2023-08-06T05:48:50;987.26;;;18.92;81.82
48810;BME280;40070;47.322;18.784;2023-08-06T05:50:51;987.22;;;18.90;82.40
48810;BME280;40070;47.322;18.784;2023-08-06T05:52:52;987.21;;;19.02;81.24
48810;BME280;40070;47.322;18.784;2023-08-06T05:54:53;987.25;;;18.98;82.08
48810;BME280;40070;47.322;18.784;2023-08-06T05:56:54;987.20;;;18.86;82.32
48810;BME280;40070;47.322;18.784;2023-08-06T05:58:55;987.17;;;18.94;81.21
48810;BME280;40070;47.322;18.784;2023-08-06T06:00:56;987.16;;;18.77;81.47
48810;BME280;40070;47.322;18.784;2023-08-06T06:02:57;987.15;;;18.86;81.01
48810;BME280;40070;47.322;18.784;2023-08-06T06:04:58;987.12;;;18.58;81.44
48810;BME280;40070;47.322;18.784;2023-08-06T06:06:59;987.13;;;18.56;82.63
48810;BME280;40070;47.322;18.784;2023-08-06T06:09:00;987.14;;;18.65;81.47
48810;BME280;40070;47.322;18.784;2023-08-06T06:11:01;987.13;;;18.68;82.15
48810;BME280;40070;47.322;18.784;2023-08-06T06:13:02;987.12;;;18.67;81.75
48810;BME280;40070;47.322;18.784;2023-08-06T06:15:03;987.14;;;18.59;81.79
48810;BME280;40070;47.322;18.784;2023-08-06T06:17:04;987.16;;;18.60;81.51
48810;BME280;40070;47.322;18.784;2023-08-06T06:19:05;987.22;;;18.67;81.47
48810;BME280;40070;47.322;18.784;2023-08-06T06:21:06;987.24;;;18.61;81.27
48810;BME280;40070;47.322;18.784;2023-08-06T06:23:07;987.33;;;18.70;81.34
48810;BME280;40070;47.322;18.784;2023-08-06T06:25:08;987.32;;;18.64;79.93
48810;BME280;40070;47.322;18.784;2023-08-06T06:27:09;987.39;;;18.74;80.51
48810;BME280;40070;47.322;18.784;2023-08-06T06:29:10;987.42;;;18.55;81.40
48810;BME280;40070;47.322;18.784;2023-08-06T06:31:11;987.45;;;18.59;81.36
48810;BME280;40070;47.322;18.784;2023-08-06T06:33:12;987.49;;;18.64;81.85
48810;BME280;40070;47.322;18.784;2023-08-06T06:35:13;987.49;;;18.75;81.16
48810;BME280;40070;47.322;18.784;2023-08-06T06:37:14;987.50;;;18.51;82.38
48810;BME280;40070;47.322;18.784;2023-08-06T06:39:15;987.49;;;18.54;81.69
48810;BME280;40070;47.322;18.784;2023-08-06T06:41:16;987.55;;;18.54;81.03
48810;BME280;40070;47.322;18.784;2023-08-06T06:43:18;987.54;;;18.73;81.05
48810;BME280;40070;47.322;18.784;2023-08-06T06:45:18;987.48;;;18.69;80.57
48810;BME280;40070;47.322;18.784;2023-08-06T06:47:19;987.45;;;18.73;80.64
48810;BME280;40070;47.322;18.784;2023-08-06T06:49:21;987.44;;;18.65;79.49
48810;BME280;40070;47.322;18.784;2023-08-06T06:51:22;987.44;;;18.64;80.26
48810;BME280;40070;47.322;18.784;2023-08-06T06:53:23;987.41;;;18.58;81.06
48810;BME280;40070;47.322;18.784;2023-08-06T06:55:24;987.46;;;18.55;80.78
48810;BME280;40070;47.322;18.784;2023-08-06T06:57:25;987.48;;;18.55;80.46
48810;BME280;40070;47.322;18.784;2023-08-06T06:59:26;987.51;;;18.50;80.70
48810;BME280;40070;47.322;18.784;2023-08-06T07:01:27;987.43;;;18.59;81.11
48810;BME280;40070;47.322;18.784;2023-08-06T07:03:28;987.45;;;18.47;80.54
48810;BME280;40070;47.322;18.784;2023-08-06T07:05:29;987.51;;;18.58;80.55
48810;BME280;40070;47.322;18.784;2023-08-06T07:07:30;987.53;;;18.62;80.29
48810;BME280;40070;47.322;18.784;2023-08-06T07:09:31;987.57;;;18.84;79.90
48810;BME280;40070;47.322;18.784;2023-08-06T07:11:32;987.67;;;18.95;78.86
48810;BME280;40070;47.322;18.784;2023-08-06T07:13:33;987.66;;;19.17;80.10
48810;BME280;40070;47.322;18.784;2023-08-06T07:15:35;987.63;;;19.09;79.20
48810;BME280;40070;47.322;18.784;2023-08-06T07:17:36;987.64;;;18.92;77.68
48810;BME280;40070;47.322;18.784;2023-08-06T07:19:37;987.71;;;18.84;78.82
48810;BME280;40070;47.322;18.784;2023-08-06T07:21:38;987.61;;;18.79;78.77
48810;BME280;40070;47.322;18.784;2023-08-06T07:23:38;987.66;;;18.94;78.34
48810;BME280;40070;47.322;18.784;2023-08-06T07:25:39;987.65;;;18.92;79.05
48810;BME280;40070;47.322;18.784;2023-08-06T07:27:40;987.71;;;18.93;78.43
48810;BME280;40070;47.322;18.784;2023-08-06T07:29:41;987.76;;;18.91;77.91
48810;BME280;40070;47.322;18.784;2023-08-06T07:31:42;987.79;;;18.71;78.95
48810;BME280;40070;47.322;18.784;2023-08-06T07:33:43;987.92;;;18.68;79.26
48810;BME280;40070;47.322;18.784;2023-08-06T07:35:44;987.88;;;18.92;79.81
48810;BME280;40070;47.322;18.784;2023-08-06T07:37:45;987.87;;;18.81;78.56
48810;BME280;40070;47.322;18.784;2023-08-06T07:39:46;987.85;;;18.96;77.87
48810;BME280;40070;47.322;18.784;2023-08-06T07:41:47;987.88;;;18.69;78.42
48810;BME280;40070;47.322;18.784;2023-08-06T07:43:48;987.87;;;18.84;78.23
48810;BME280;40070;47.322;18.784;2023-08-06T07:45:49;987.95;;;18.90;77.15
48810;BME280;40070;47.322;18.784;2023-08-06T07:47:50;987.94;;;18.89;77.58
48810;BME280;40070;47.322;18.784;2023-08-06T07:49:51;987.90;;;18.81;77.93
48810;BME280;40070;47.322;18.784;2023-08-06T07:51:52;988.02;;;18.66;77.55
48810;BME280;40070;47.322;18.784;2023-08-06T07:53:53;988.02;;;18.89;79.40
48810;BME280;40070;47.322;18.784;2023-08-06T07:55:54;988.06;;;18.84;78.23
48810;BME280;40070;47.322;18.784;2023-08-06T07:57:55;988.04;;;18.91;76.62
48810;BME280;40070;47.322;18.784;2023-08-06T07:59:56;988.04;;;18.87;77.24
48810;BME280;40070;47.322;18.784;2023-08-06T08:01:57;988.06;;;18.98;77.43
48810;BME280;40070;47.322;18.784;2023-08-06T08:03:58;987.96;;;18.88;77.21
48810;BME280;40070;47.322;18.784;2023-08-06T08:05:59;987.95;;;18.94;76.91
48810;BME280;40070;47.322;18.784;2023-08-06T08:08:00;987.92;;;18.88;76.94
48810;BME280;40070;47.322;18.784;2023-08-06T08:10:01;987.96;;;18.58;78.58
48810;BME280;40070;47.322;18.784;2023-08-06T08:12:03;987.93;;;18.69;78.34
48810;BME280;40070;47.322;18.784;2023-08-06T08:14:04;987.93;;;18.68;77.74
48810;BME280;40070;47.322;18.784;2023-08-06T08:16:05;987.94;;;18.71;77.32
48810;BME280;40070;47.322;18.784;2023-08-06T08:18:06;987.83;;;18.80;76.79
48810;BME280;40070;47.322;18.784;2023-08-06T08:20:07;987.88;;;18.93;76.55
48810;BME280;40070;47.322;18.784;2023-08-06T08:22:08;987.82;;;18.85;76.25
48810;BME280;40070;47.322;18.784;2023-08-06T08:24:09;987.84;;;18.66;76.72
48810;BME280;40070;47.322;18.784;2023-08-06T08:26:10;987.83;;;18.69;77.00
48810;BME280;40070;47.322;18.784;2023-08-06T08:28:11;987.78;;;18.87;76.75
48810;BME280;40070;47.322;18.784;2023-08-06T08:30:12;987.73;;;18.76;76.88
48810;BME280;40070;47.322;18.784;2023-08-06T08:32:13;987.64;;;18.78;76.95
48810;BME280;40070;47.322;18.784;2023-08-06T08:34:14;987.69;;;18.85;76.55
48810;BME280;40070;47.322;18.784;2023-08-06T08:36:15;987.65;;;18.56;77.71
48810;BME280;40070;47.322;18.784;2023-08-06T08:38:16;987.52;;;18.74;77.44
48810;BME280;40070;47.322;18.784;2023-08-06T08:40:17;987.51;;;18.68;77.81
48810;BME280;40070;47.322;18.784;2023-08-06T08:42:18;987.54;;;18.73;77.66
48810;BME280;40070;47.322;18.784;2023-08-06T08:44:20;987.64;;;18.90;76.43
48810;BME280;40070;47.322;18.784;2023-08-06T08:46:20;987.71;;;18.90;77.06
48810;BME280;40070;47.322;18.784;2023-08-06T08:48:23;987.86;;;19.11;76.11
48810;BME280;40070;47.322;18.784;2023-08-06T08:50:24;987.94;;;19.24;75.53
48810;BME280;40070;47.322;18.784;2023-08-06T08:52:25;988.04;;;19.15;74.24
48810;BME280;40070;47.322;18.784;2023-08-06T08:54:26;988.09;;;18.88;76.11
48810;BME280;40070;47.322;18.784;2023-08-06T08:56:27;988.14;;;18.97;74.65
48810;BME280;40070;47.322;18.784;2023-08-06T08:58:28;988.10;;;19.10;76.89
48810;BME280;40070;47.322;18.784;2023-08-06T09:00:29;988.18;;;18.99;75.41
48810;BME280;40070;47.322;18.784;2023-08-06T09:02:30;988.12;;;18.91;75.34
48810;BME280;40070;47.322;18.784;2023-08-06T09:04:33;988.08;;;19.03;75.71
48810;BME280;40070;47.322;18.784;2023-08-06T09:06:35;988.08;;;19.13;75.50
48810;BME280;40070;47.322;18.784;2023-08-06T09:08:50;988.09;;;19.25;74.93
48810;BME280;40070;47.322;18.784;2023-08-06T09:10:51;988.10;;;18.98;74.33
48810;BME280;40070;47.322;18.784;2023-08-06T09:12:53;988.12;;;19.21;74.53
48810;BME280;40070;47.322;18.784;2023-08-06T09:14:55;988.12;;;19.50;75.62
48810;BME280;40070;47.322;18.784;2023-08-06T09:16:56;988.04;;;19.54;73.37
48810;BME280;40070;47.322;18.784;2023-08-06T09:19:00;988.06;;;19.40;72.56
48810;BME280;40070;47.322;18.784;2023-08-06T09:21:07;988.08;;;19.45;72.06
48810;BME280;40070;47.322;18.784;2023-08-06T09:23:22;988.12;;;19.43;72.89
48810;BME280;40070;47.322;18.784;2023-08-06T09:25:26;988.09;;;19.70;73.49
48810;BME280;40070;47.322;18.784;2023-08-06T09:27:27;988.08;;;19.44;72.76
48810;BME280;40070;47.322;18.784;2023-08-06T09:29:28;988.08;;;19.37;73.46
48810;BME280;40070;47.322;18.784;2023-08-06T09:31:44;988.07;;;19.31;73.36
48810;BME280;40070;47.322;18.784;2023-08-06T09:33:45;988.03;;;19.31;72.66
48810;BME280;40070;47.322;18.784;2023-08-06T09:35:46;988.02;;;19.25;72.81
48810;BME280;40070;47.322;18.784;2023-08-06T09:37:47;988.00;;;19.35;71.98
48810;BME280;40070;47.322;18.784;2023-08-06T09:39:48;987.92;;;19.44;72.50
48810;BME280;40070;47.322;18.784;2023-08-06T09:41:49;987.93;;;19.08;72.27
48810;BME280;40070;47.322;18.784;2023-08-06T09:43:56;987.99;;;19.04;73.10
48810;BME280;40070;47.322;18.784;2023-08-06T09:45:56;987.93;;;19.22;73.40
48810;BME280;40070;47.322;18.784;2023-08-06T09:47:59;988.00;;;19.37;71.79
48810;BME280;40070;47.322;18.784;2023-08-06T09:50:00;988.03;;;19.44;71.08
48810;BME280;40070;47.322;18.784;2023-08-06T09:52:01;988.06;;;19.53;71.22
48810;BME280;40070;47.322;18.784;2023-08-06T09:54:02;988.14;;;19.62;70.34
48810;BME280;40070;47.322;18.784;2023-08-06T09:56:04;988.25;;;19.44;70.68
48810;BME280;40070;47.322;18.784;2023-08-06T09:58:07;988.29;;;19.30;71.34
48810;BME280;40070;47.322;18.784;2023-08-06T10:00:10;988.39;;;19.45;71.56
48810;BME280;40070;47.322;18.784;2023-08-06T10:02:12;988.41;;;19.39;71.13
48810;BME280;40070;47.322;18.784;2023-08-06T10:04:14;988.39;;;19.42;71.05
48810;BME280;40070;47.322;18.784;2023-08-06T10:06:16;988.42;;;19.34;70.79
48810;BME280;40070;47.322;18.784;2023-08-06T10:08:17;988.49;;;19.50;70.10
48810;BME280;40070;47.322;18.784;2023-08-06T10:10:18;988.52;;;19.47;71.43
48810;BME280;40070;47.322;18.784;2023-08-06T10:12:19;988.60;;;19.73;71.46
48810;BME280;40070;47.322;18.784;2023-08-06T10:14:25;988.62;;;19.72;69.89
48810;BME280;40070;47.322;18.784;2023-08-06T10:16:26;988.67;;;19.69;68.82
48810;BME280;40070;47.322;18.784;2023-08-06T10:18:28;988.69;;;19.69;69.93
48810;BME280;40070;47.322;18.784;2023-08-06T10:20:35;988.69;;;19.65;69.61
48810;BME280;40070;47.322;18.784;2023-08-06T10:22:36;988.68;;;19.55;69.42
48810;BME280;40070;47.322;18.784;2023-08-06T10:24:52;988.65;;;19.64;70.09
48810;BME280;40070;47.322;18.784;2023-08-06T10:26:56;988.67;;;19.50;69.86
48810;BME280;40070;47.322;18.784;2023-08-06T10:28:57;988.69;;;19.22;70.97
48810;BME280;40070;47.322;18.784;2023-08-06T10:30:58;988.70;;;19.27;70.94
48810;BME280;40070;47.322;18.784;2023-08-06T10:33:03;988.79;;;19.06;70.85
48810;BME280;40070;47.322;18.784;2023-08-06T10:35:04;988.74;;;18.99;71.23
48810;BME280;40070;47.322;18.784;2023-08-06T10:37:05;988.82;;;18.90;71.03
48810;BME280;40070;47.322;18.784;2023-08-06T10:39:06;988.80;;;18.99;71.57
48810;BME280;40070;47.322;18.784;2023-08-06T10:41:07;988.83;;;18.97;71.75
48810;BME280;40070;47.322;18.784;2023-08-06T10:43:08;988.87;;;18.89;72.02
48810;BME280;40070;47.322;18.784;2023-08-06T10:45:20;988.90;;;18.87;71.56
48810;BME280;40070;47.322;18.784;2023-08-06T10:47:27;988.87;;;18.89;72.01
48810;BME280;40070;47.322;18.784;2023-08-06T10:49:28;988.88;;;18.77;72.49
48810;BME280;40070;47.322;18.784;2023-08-06T10:51:29;988.88;;;18.93;72.15
48810;BME280;40070;47.322;18.784;2023-08-06T10:53:31;988.93;;;18.92;72.18
48810;BME280;40070;47.322;18.784;2023-08-06T10:55:32;988.83;;;19.06;71.96
48810;BME280;40070;47.322;18.784;2023-08-06T10:57:33;988.85;;;19.03;71.87